sensor_id;sensor_type;location;lat;lon;timestamp;P1;P2;P0
40569;PMS5003;26270;34.428;-119.710;2022-12-15T00:01:29;2;2;
40569;PMS5003;26270;34.428;-119.710;2022-12-15T00:03:58;1;1;
40569;PMS5003;26270;34.428;-119.710;2022-12-15T00:06:26;1;1;
40569;PMS5003;26270;34.428;-119.710;2022-12-15T00:08:55;3;3;
40569;PMS5003;26270;34.428;-119.710;2022-12-15T00:11:23;4;3;
40569;PMS5003;26270;34.428;-119.710;2022-12-15T00:13:52;7;5;
40569;PMS5003;26270;34.428;-119.710;2022-12-15T00:16:20;5;5;
40569;PMS5003;26270;34.428;-119.710;2022-12-15T00:18:48;3;3;
40569;PMS5003;26270;34.428;-119.710;2022-12-15T00:21:17;4;4;
40569;PMS5003;26270;34.428;-119.710;2022-12-15T00:23:45;2;2;
40569;PMS5003;26270;34.428;-119.710;2022-12-15T00:26:14;3;2;
40569;PMS5003;26270;34.428;-119.710;2022-12-15T00:28:42;1;1;
40569;PMS5003;26270;34.428;-119.710;2022-12-15T00:31:10;2;2;
40569;PMS5003;26270;34.428;-119.710;2022-12-15T00:33:39;2;2;
40569;PMS5003;26270;34.428;-119.710;2022-12-15T00:36:07;1;1;
40569;PMS5003;26270;34.428;-119.710;2022-12-15T00:38:36;1;1;
40569;PMS5003;26270;34.428;-119.710;2022-12-15T00:41:04;2;2;
40569;PMS5003;26270;34.428;-119.710;2022-12-15T00:43:33;2;2;
40569;PMS5003;26270;34.428;-119.710;2022-12-15T00:46:03;2;2;
40569;PMS5003;26270;34.428;-119.710;2022-12-15T00:48:32;3;2;
40569;PMS5003;26270;34.428;-119.710;2022-12-15T00:51:01;1;1;
40569;PMS5003;26270;34.428;-119.710;2022-12-15T00:53:29;3;2;
40569;PMS5003;26270;34.428;-119.710;2022-12-15T00:55:57;2;2;
40569;PMS5003;26270;34.428;-119.710;2022-12-15T00:58:26;2;1;
40569;PMS5003;26270;34.428;-119.710;2022-12-15T01:00:54;3;2;
40569;PMS5003;26270;34.428;-119.710;2022-12-15T01:03:23;2;2;
40569;PMS5003;26270;34.428;-119.710;2022-12-15T01:05:51;2;2;
40569;PMS5003;26270;34.428;-119.710;2022-12-15T01:08:20;2;1;
40569;PMS5003;26270;34.428;-119.710;2022-12-15T01:10:48;4;3;
40569;PMS5003;26270;34.428;-119.710;2022-12-15T01:13:16;2;2;
40569;PMS5003;26270;34.428;-119.710;2022-12-15T01:15:44;3;3;
40569;PMS5003;26270;34.428;-119.710;2022-12-15T01:18:12;5;5;
40569;PMS5003;26270;34.428;-119.710;2022-12-15T01:20:41;4;4;
40569;PMS5003;26270;34.428;-119.710;2022-12-15T01:23:09;3;3;
40569;PMS5003;26270;34.428;-119.710;2022-12-15T01:25:38;2;2;
40569;PMS5003;26270;34.428;-119.710;2022-12-15T01:28:06;5;4;
40569;PMS5003;26270;34.428;-119.710;2022-12-15T01:30:35;5;4;
40569;PMS5003;26270;34.428;-119.710;2022-12-15T01:33:04;5;4;
40569;PMS5003;26270;34.428;-119.710;2022-12-15T01:35:32;6;6;
40569;PMS5003;26270;34.428;-119.710;2022-12-15T01:38:00;6;6;
40569;PMS5003;26270;34.428;-119.710;2022-12-15T01:40:29;8;6;
40569;PMS5003;26270;34.428;-119.710;2022-12-15T01:42:57;6;6;
40569;PMS5003;26270;34.428;-119.710;2022-12-15T01:45:46;6;4;
40569;PMS5003;26270;34.428;-119.710;2022-12-15T01:48:25;5;4;
40569;PMS5003;26270;34.428;-119.710;2022-12-15T01:51:00;7;5;
40569;PMS5003;26270;34.428;-119.710;2022-12-15T01:53:35;5;5;
40569;PMS5003;26270;34.428;-119.710;2022-12-15T01:56:07;6;5;
40569;PMS5003;26270;34.428;-119.710;2022-12-15T01:58:35;6;6;
40569;PMS5003;26270;34.428;-119.710;2022-12-15T02:01:08;7;6;
40569;PMS5003;26270;34.428;-119.710;2022-12-15T02:03:37;8;8;
40569;PMS5003;26270;34.428;-119.710;2022-12-15T02:06:06;8;8;
40569;PMS5003;26270;34.428;-119.710;2022-12-15T02:08:36;7;6;
40569;PMS5003;26270;34.428;-119.710;2022-12-15T02:11:10;6;6;
40569;PMS5003;26270;34.428;-119.710;2022-12-15T02:13:55;10;9;
40569;PMS5003;26270;34.428;-119.710;2022-12-15T02:16:30;13;13;
40569;PMS5003;26270;34.428;-119.710;2022-12-15T02:19:20;25;24;
40569;PMS5003;26270;34.428;-119.710;2022-12-15T02:22:09;14;14;
40569;PMS5003;26270;34.428;-119.710;2022-12-15T02:24:58;14;13;
40569;PMS5003;26270;34.428;-119.710;2022-12-15T02:27:42;14;12;
40569;PMS5003;26270;34.428;-119.710;2022-12-15T02:30:21;12;12;
40569;PMS5003;26270;34.428;-119.710;2022-12-15T02:32:59;12;12;
40569;PMS5003;26270;34.428;-119.710;2022-12-15T02:35:36;9;9;
40569;PMS5003;26270;34.428;-119.710;2022-12-15T02:38:13;7;7;
40569;PMS5003;26270;34.428;-119.710;2022-12-15T02:40:41;7;7;
40569;PMS5003;26270;34.428;-119.710;2022-12-15T02:43:09;9;7;
40569;PMS5003;26270;34.428;-119.710;2022-12-15T02:45:41;9;9;
40569;PMS5003;26270;34.428;-119.710;2022-12-15T02:48:20;11;11;
40569;PMS5003;26270;34.428;-119.710;2022-12-15T02:51:01;12;12;
40569;PMS5003;26270;34.428;-119.710;2022-12-15T02:53:43;16;16;
40569;PMS5003;26270;34.428;-119.710;2022-12-15T02:56:23;20;14;
40569;PMS5003;26270;34.428;-119.710;2022-12-15T02:59:01;18;16;
40569;PMS5003;26270;34.428;-119.710;2022-12-15T03:01:37;14;14;
40569;PMS5003;26270;34.428;-119.710;2022-12-15T03:04:09;16;16;
40569;PMS5003;26270;34.428;-119.710;2022-12-15T03:06:38;21;18;
40569;PMS5003;26270;34.428;-119.710;2022-12-15T03:09:06;18;18;
40569;PMS5003;26270;34.428;-119.710;2022-12-15T03:11:34;15;15;
40569;PMS5003;26270;34.428;-119.710;2022-12-15T03:14:03;15;15;
40569;PMS5003;26270;34.428;-119.710;2022-12-15T03:16:31;16;16;
40569;PMS5003;26270;34.428;-119.710;2022-12-15T03:18:59;13;13;
40569;PMS5003;26270;34.428;-119.710;2022-12-15T03:21:27;10;10;
40569;PMS5003;26270;34.428;-119.710;2022-12-15T03:23:55;13;13;
40569;PMS5003;26270;34.428;-119.710;2022-12-15T03:26:23;13;13;
40569;PMS5003;26270;34.428;-119.710;2022-12-15T03:28:52;18;15;
40569;PMS5003;26270;34.428;-119.710;2022-12-15T03:31:19;24;24;
40569;PMS5003;26270;34.428;-119.710;2022-12-15T03:33:48;19;19;
40569;PMS5003;26270;34.428;-119.710;2022-12-15T03:36:16;18;18;
40569;PMS5003;26270;34.428;-119.710;2022-12-15T03:38:45;23;22;
40569;PMS5003;26270;34.428;-119.710;2022-12-15T03:41:13;25;24;
40569;PMS5003;26270;34.428;-119.710;2022-12-15T03:43:41;29;27;
40569;PMS5003;26270;34.428;-119.710;2022-12-15T03:46:09;25;25;
40569;PMS5003;26270;34.428;-119.710;2022-12-15T03:48:36;25;25;
40569;PMS5003;26270;34.428;-119.710;2022-12-15T03:51:04;29;28;
40569;PMS5003;26270;34.428;-119.710;2022-12-15T03:53:33;25;25;
40569;PMS5003;26270;34.428;-119.710;2022-12-15T03:56:01;29;28;
40569;PMS5003;26270;34.428;-119.710;2022-12-15T03:58:29;16;16;
40569;PMS5003;26270;34.428;-119.710;2022-12-15T04:00:58;16;14;
40569;PMS5003;26270;34.428;-119.710;2022-12-15T04:03:34;13;12;
40569;PMS5003;26270;34.428;-119.710;2022-12-15T04:06:02;11;10;
40569;PMS5003;26270;34.428;-119.710;2022-12-15T04:08:31;11;11;
40569;PMS5003;26270;34.428;-119.710;2022-12-15T04:10:59;8;8;
40569;PMS5003;26270;34.428;-119.710;2022-12-15T04:13:27;10;9;
40569;PMS5003;26270;34.428;-119.710;2022-12-15T04:15:55;10;10;
40569;PMS5003;26270;34.428;-119.710;2022-12-15T04:18:23;9;9;
40569;PMS5003;26270;34.428;-119.710;2022-12-15T04:20:52;9;9;
40569;PMS5003;26270;34.428;-119.710;2022-12-15T04:23:19;12;12;
40569;PMS5003;26270;34.428;-119.710;2022-12-15T04:25:47;13;13;
40569;PMS5003;26270;34.428;-119.710;2022-12-15T04:28:16;26;22;
40569;PMS5003;26270;34.428;-119.710;2022-12-15T04:30:45;20;20;
40569;PMS5003;26270;34.428;-119.710;2022-12-15T04:33:16;19;16;
40569;PMS5003;26270;34.428;-119.710;2022-12-15T04:35:44;16;15;
40569;PMS5003;26270;34.428;-119.710;2022-12-15T04:38:14;17;16;
40569;PMS5003;26270;34.428;-119.710;2022-12-15T04:40:43;21;20;
40569;PMS5003;26270;34.428;-119.710;2022-12-15T04:43:11;19;17;
40569;PMS5003;26270;34.428;-119.710;2022-12-15T04:45:39;14;14;
40569;PMS5003;26270;34.428;-119.710;2022-12-15T04:48:08;18;18;
40569;PMS5003;26270;34.428;-119.710;2022-12-15T04:50:36;17;17;
40569;PMS5003;26270;34.428;-119.710;2022-12-15T04:53:06;15;14;
40569;PMS5003;26270;34.428;-119.710;2022-12-15T04:55:35;21;18;
40569;PMS5003;26270;34.428;-119.710;2022-12-15T04:58:04;23;22;
40569;PMS5003;26270;34.428;-119.710;2022-12-15T05:03:18;20;19;
40569;PMS5003;26270;34.428;-119.710;2022-12-15T05:05:46;20;19;
40569;PMS5003;26270;34.428;-119.710;2022-12-15T05:08:14;24;21;
40569;PMS5003;26270;34.428;-119.710;2022-12-15T05:10:42;17;17;
40569;PMS5003;26270;34.428;-119.710;2022-12-15T05:13:11;16;16;
40569;PMS5003;26270;34.428;-119.710;2022-12-15T05:15:39;15;15;
40569;PMS5003;26270;34.428;-119.710;2022-12-15T05:18:07;15;15;
40569;PMS5003;26270;34.428;-119.710;2022-12-15T05:20:35;13;13;
40569;PMS5003;26270;34.428;-119.710;2022-12-15T05:23:03;14;13;
40569;PMS5003;26270;34.428;-119.710;2022-12-15T05:25:30;17;16;
40569;PMS5003;26270;34.428;-119.710;2022-12-15T05:27:59;20;19;
40569;PMS5003;26270;34.428;-119.710;2022-12-15T05:30:28;18;17;
40569;PMS5003;26270;34.428;-119.710;2022-12-15T05:32:56;16;16;
40569;PMS5003;26270;34.428;-119.710;2022-12-15T05:35:29;16;15;
40569;PMS5003;26270;34.428;-119.710;2022-12-15T05:37:57;10;8;
40569;PMS5003;26270;34.428;-119.710;2022-12-15T05:40:25;8;8;
40569;PMS5003;26270;34.428;-119.710;2022-12-15T05:42:52;6;6;
40569;PMS5003;26270;34.428;-119.710;2022-12-15T05:45:24;6;6;
40569;PMS5003;26270;34.428;-119.710;2022-12-15T05:47:53;7;7;
40569;PMS5003;26270;34.428;-119.710;2022-12-15T05:50:22;8;7;
40569;PMS5003;26270;34.428;-119.710;2022-12-15T05:52:50;6;6;
40569;PMS5003;26270;34.428;-119.710;2022-12-15T05:55:19;8;8;
40569;PMS5003;26270;34.428;-119.710;2022-12-15T05:57:50;11;10;
40569;PMS5003;26270;34.428;-119.710;2022-12-15T06:00:19;13;13;
40569;PMS5003;26270;34.428;-119.710;2022-12-15T06:02:48;13;13;
40569;PMS5003;26270;34.428;-119.710;2022-12-15T06:05:16;15;14;
40569;PMS5003;26270;34.428;-119.710;2022-12-15T06:07:44;19;16;
40569;PMS5003;26270;34.428;-119.710;2022-12-15T06:10:13;14;13;
40569;PMS5003;26270;34.428;-119.710;2022-12-15T06:12:42;15;12;
40569;PMS5003;26270;34.428;-119.710;2022-12-15T06:15:09;7;7;
40569;PMS5003;26270;34.428;-119.710;2022-12-15T06:17:37;6;5;
40569;PMS5003;26270;34.428;-119.710;2022-12-15T06:20:05;4;3;
40569;PMS5003;26270;34.428;-119.710;2022-12-15T06:22:34;9;7;
40569;PMS5003;26270;34.428;-119.710;2022-12-15T06:25:03;6;6;
40569;PMS5003;26270;34.428;-119.710;2022-12-15T06:27:31;6;6;
40569;PMS5003;26270;34.428;-119.710;2022-12-15T06:30:02;8;7;
40569;PMS5003;26270;34.428;-119.710;2022-12-15T06:32:33;7;7;
40569;PMS5003;26270;34.428;-119.710;2022-12-15T06:35:01;5;5;
40569;PMS5003;26270;34.428;-119.710;2022-12-15T06:37:28;6;5;
40569;PMS5003;26270;34.428;-119.710;2022-12-15T06:39:56;6;5;
40569;PMS5003;26270;34.428;-119.710;2022-12-15T06:42:25;6;6;
40569;PMS5003;26270;34.428;-119.710;2022-12-15T06:44:53;10;10;
40569;PMS5003;26270;34.428;-119.710;2022-12-15T06:47:22;10;10;
40569;PMS5003;26270;34.428;-119.710;2022-12-15T06:49:52;8;8;
40569;PMS5003;26270;34.428;-119.710;2022-12-15T06:52:21;9;9;
40569;PMS5003;26270;34.428;-119.710;2022-12-15T06:54:52;10;10;
40569;PMS5003;26270;34.428;-119.710;2022-12-15T06:57:24;6;6;
40569;PMS5003;26270;34.428;-119.710;2022-12-15T06:59:55;6;6;
40569;PMS5003;26270;34.428;-119.710;2022-12-15T07:02:25;7;6;
40569;PMS5003;26270;34.428;-119.710;2022-12-15T07:04:55;6;6;
40569;PMS5003;26270;34.428;-119.710;2022-12-15T07:07:25;6;6;
40569;PMS5003;26270;34.428;-119.710;2022-12-15T07:09:53;8;8;
40569;PMS5003;26270;34.428;-119.710;2022-12-15T07:12:22;6;5;
40569;PMS5003;26270;34.428;-119.710;2022-12-15T07:14:50;8;7;
40569;PMS5003;26270;34.428;-119.710;2022-12-15T07:17:18;7;6;
40569;PMS5003;26270;34.428;-119.710;2022-12-15T07:19:45;7;5;
40569;PMS5003;26270;34.428;-119.710;2022-12-15T07:22:13;4;4;
40569;PMS5003;26270;34.428;-119.710;2022-12-15T07:24:42;6;6;
40569;PMS5003;26270;34.428;-119.710;2022-12-15T07:27:10;6;5;
40569;PMS5003;26270;34.428;-119.710;2022-12-15T07:29:38;4;4;
40569;PMS5003;26270;34.428;-119.710;2022-12-15T07:32:06;2;2;
40569;PMS5003;26270;34.428;-119.710;2022-12-15T07:34:34;3;3;
40569;PMS5003;26270;34.428;-119.710;2022-12-15T07:37:03;3;3;
40569;PMS5003;26270;34.428;-119.710;2022-12-15T07:39:31;2;2;
40569;PMS5003;26270;34.428;-119.710;2022-12-15T07:42:00;4;2;
40569;PMS5003;26270;34.428;-119.710;2022-12-15T07:44:28;3;3;
40569;PMS5003;26270;34.428;-119.710;2022-12-15T07:46:56;3;3;
40569;PMS5003;26270;34.428;-119.710;2022-12-15T07:49:23;2;2;
40569;PMS5003;26270;34.428;-119.710;2022-12-15T07:51:52;1;1;
40569;PMS5003;26270;34.428;-119.710;2022-12-15T07:54:20;3;3;
40569;PMS5003;26270;34.428;-119.710;2022-12-15T07:56:47;2;2;
40569;PMS5003;26270;34.428;-119.710;2022-12-15T07:59:16;2;2;
40569;PMS5003;26270;34.428;-119.710;2022-12-15T08:01:43;3;3;
40569;PMS5003;26270;34.428;-119.710;2022-12-15T08:04:11;3;3;
40569;PMS5003;26270;34.428;-119.710;2022-12-15T08:06:40;3;2;
40569;PMS5003;26270;34.428;-119.710;2022-12-15T08:09:08;2;2;
40569;PMS5003;26270;34.428;-119.710;2022-12-15T08:11:37;3;3;
40569;PMS5003;26270;34.428;-119.710;2022-12-15T08:14:04;4;4;
40569;PMS5003;26270;34.428;-119.710;2022-12-15T08:16:32;3;3;
40569;PMS5003;26270;34.428;-119.710;2022-12-15T08:19:01;4;3;
40569;PMS5003;26270;34.428;-119.710;2022-12-15T08:21:29;3;3;
40569;PMS5003;26270;34.428;-119.710;2022-12-15T08:23:58;4;4;
40569;PMS5003;26270;34.428;-119.710;2022-12-15T08:26:26;4;4;
40569;PMS5003;26270;34.428;-119.710;2022-12-15T08:28:55;3;3;
40569;PMS5003;26270;34.428;-119.710;2022-12-15T08:31:23;4;3;
40569;PMS5003;26270;34.428;-119.710;2022-12-15T08:33:51;4;4;
40569;PMS5003;26270;34.428;-119.710;2022-12-15T08:36:18;3;3;
40569;PMS5003;26270;34.428;-119.710;2022-12-15T08:38:46;3;3;
40569;PMS5003;26270;34.428;-119.710;2022-12-15T08:41:16;2;2;
40569;PMS5003;26270;34.428;-119.710;2022-12-15T08:43:46;3;3;
40569;PMS5003;26270;34.428;-119.710;2022-12-15T08:46:15;2;2;
40569;PMS5003;26270;34.428;-119.710;2022-12-15T08:48:45;3;3;
40569;PMS5003;26270;34.428;-119.710;2022-12-15T08:51:14;4;4;
40569;PMS5003;26270;34.428;-119.710;2022-12-15T08:53:42;4;4;
40569;PMS5003;26270;34.428;-119.710;2022-12-15T08:56:12;4;2;
40569;PMS5003;26270;34.428;-119.710;2022-12-15T08:58:42;2;2;
40569;PMS5003;26270;34.428;-119.710;2022-12-15T09:01:11;4;4;
40569;PMS5003;26270;34.428;-119.710;2022-12-15T09:03:42;3;2;
40569;PMS5003;26270;34.428;-119.710;2022-12-15T09:06:11;3;3;
40569;PMS5003;26270;34.428;-119.710;2022-12-15T09:08:42;3;3;
40569;PMS5003;26270;34.428;-119.710;2022-12-15T09:11:11;2;2;
40569;PMS5003;26270;34.428;-119.710;2022-12-15T09:13:40;4;3;
40569;PMS5003;26270;34.428;-119.710;2022-12-15T09:16:10;2;2;
40569;PMS5003;26270;34.428;-119.710;2022-12-15T09:18:40;2;2;
40569;PMS5003;26270;34.428;-119.710;2022-12-15T09:21:10;1;1;
40569;PMS5003;26270;34.428;-119.710;2022-12-15T09:23:39;3;3;
40569;PMS5003;26270;34.428;-119.710;2022-12-15T09:26:10;3;3;
40569;PMS5003;26270;34.428;-119.710;2022-12-15T09:28:40;2;2;
40569;PMS5003;26270;34.428;-119.710;2022-12-15T09:31:09;2;2;
40569;PMS5003;26270;34.428;-119.710;2022-12-15T09:33:39;2;2;
40569;PMS5003;26270;34.428;-119.710;2022-12-15T09:36:09;1;1;
40569;PMS5003;26270;34.428;-119.710;2022-12-15T09:38:39;3;2;
40569;PMS5003;26270;34.428;-119.710;2022-12-15T09:41:08;2;2;
40569;PMS5003;26270;34.428;-119.710;2022-12-15T09:43:49;3;2;
40569;PMS5003;26270;34.428;-119.710;2022-12-15T09:46:22;3;3;
40569;PMS5003;26270;34.428;-119.710;2022-12-15T09:48:58;1;1;
40569;PMS5003;26270;34.428;-119.710;2022-12-15T09:51:31;1;1;
40569;PMS5003;26270;34.428;-119.710;2022-12-15T09:54:05;2;2;
40569;PMS5003;26270;34.428;-119.710;2022-12-15T09:56:38;3;3;
40569;PMS5003;26270;34.428;-119.710;2022-12-15T09:59:18;2;2;
40569;PMS5003;26270;34.428;-119.710;2022-12-15T10:02:01;3;3;
40569;PMS5003;26270;34.428;-119.710;2022-12-15T10:04:44;2;2;
40569;PMS5003;26270;34.428;-119.710;2022-12-15T10:07:24;2;2;
40569;PMS5003;26270;34.428;-119.710;2022-12-15T10:09:55;2;2;
40569;PMS5003;26270;34.428;-119.710;2022-12-15T10:12:25;2;1;
40569;PMS5003;26270;34.428;-119.710;2022-12-15T10:15:03;1;1;
40569;PMS5003;26270;34.428;-119.710;2022-12-15T10:17:44;2;2;
40569;PMS5003;26270;34.428;-119.710;2022-12-15T10:20:16;2;1;
40569;PMS5003;26270;34.428;-119.710;2022-12-15T10:22:47;2;2;
40569;PMS5003;26270;34.428;-119.710;2022-12-15T10:25:17;2;2;
40569;PMS5003;26270;34.428;-119.710;2022-12-15T10:27:58;1;1;
40569;PMS5003;26270;34.428;-119.710;2022-12-15T10:30:41;3;2;
40569;PMS5003;26270;34.428;-119.710;2022-12-15T10:33:17;2;1;
40569;PMS5003;26270;34.428;-119.710;2022-12-15T10:35:48;1;1;
40569;PMS5003;26270;34.428;-119.710;2022-12-15T10:38:22;1;1;
40569;PMS5003;26270;34.428;-119.710;2022-12-15T10:40:53;2;2;
40569;PMS5003;26270;34.428;-119.710;2022-12-15T10:43:26;2;2;
40569;PMS5003;26270;34.428;-119.710;2022-12-15T10:45:59;2;2;
40569;PMS5003;26270;34.428;-119.710;2022-12-15T10:48:30;1;1;
40569;PMS5003;26270;34.428;-119.710;2022-12-15T10:51:18;2;2;
40569;PMS5003;26270;34.428;-119.710;2022-12-15T10:53:48;2;1;
40569;PMS5003;26270;34.428;-119.710;2022-12-15T10:56:19;1;1;
40569;PMS5003;26270;34.428;-119.710;2022-12-15T10:58:50;1;1;
40569;PMS5003;26270;34.428;-119.710;2022-12-15T11:01:22;4;2;
40569;PMS5003;26270;34.428;-119.710;2022-12-15T11:03:53;3;2;
40569;PMS5003;26270;34.428;-119.710;2022-12-15T11:06:22;3;2;
40569;PMS5003;26270;34.428;-119.710;2022-12-15T11:08:53;3;2;
40569;PMS5003;26270;34.428;-119.710;2022-12-15T11:11:25;2;2;
40569;PMS5003;26270;34.428;-119.710;2022-12-15T11:14:04;2;2;
40569;PMS5003;26270;34.428;-119.710;2022-12-15T11:16:41;4;3;
40569;PMS5003;26270;34.428;-119.710;2022-12-15T11:19:12;3;3;
40569;PMS5003;26270;34.428;-119.710;2022-12-15T11:21:53;3;3;
40569;PMS5003;26270;34.428;-119.710;2022-12-15T11:24:28;3;3;
40569;PMS5003;26270;34.428;-119.710;2022-12-15T11:27:05;2;2;
40569;PMS5003;26270;34.428;-119.710;2022-12-15T11:29:43;3;3;
40569;PMS5003;26270;34.428;-119.710;2022-12-15T11:32:20;4;3;
40569;PMS5003;26270;34.428;-119.710;2022-12-15T11:34:50;3;2;
40569;PMS5003;26270;34.428;-119.710;2022-12-15T11:37:31;2;1;
40569;PMS5003;26270;34.428;-119.710;2022-12-15T11:40:12;1;1;
40569;PMS5003;26270;34.428;-119.710;2022-12-15T11:42:52;1;1;
40569;PMS5003;26270;34.428;-119.710;2022-12-15T11:45:30;1;1;
40569;PMS5003;26270;34.428;-119.710;2022-12-15T11:48:09;1;1;
40569;PMS5003;26270;34.428;-119.710;2022-12-15T11:50:43;2;2;
40569;PMS5003;26270;34.428;-119.710;2022-12-15T11:53:24;2;2;
40569;PMS5003;26270;34.428;-119.710;2022-12-15T11:56:19;1;1;
40569;PMS5003;26270;34.428;-119.710;2022-12-15T11:59:08;1;1;
40569;PMS5003;26270;34.428;-119.710;2022-12-15T12:01:55;2;2;
40569;PMS5003;26270;34.428;-119.710;2022-12-15T12:04:38;3;3;
40569;PMS5003;26270;34.428;-119.710;2022-12-15T12:07:19;2;2;
40569;PMS5003;26270;34.428;-119.710;2022-12-15T12:10:00;1;1;
40569;PMS5003;26270;34.428;-119.710;2022-12-15T12:12:40;1;1;
40569;PMS5003;26270;34.428;-119.710;2022-12-15T12:15:19;1;1;
40569;PMS5003;26270;34.428;-119.710;2022-12-15T12:17:56;3;1;
40569;PMS5003;26270;34.428;-119.710;2022-12-15T12:20:35;2;2;
40569;PMS5003;26270;34.428;-119.710;2022-12-15T12:23:12;1;1;
40569;PMS5003;26270;34.428;-119.710;2022-12-15T12:25:55;2;1;
40569;PMS5003;26270;34.428;-119.710;2022-12-15T12:28:28;2;2;
40569;PMS5003;26270;34.428;-119.710;2022-12-15T12:31:09;1;1;
40569;PMS5003;26270;34.428;-119.710;2022-12-15T12:33:49;3;2;
40569;PMS5003;26270;34.428;-119.710;2022-12-15T12:36:21;1;1;
40569;PMS5003;26270;34.428;-119.710;2022-12-15T12:38:50;2;1;
40569;PMS5003;26270;34.428;-119.710;2022-12-15T12:41:24;1;1;
40569;PMS5003;26270;34.428;-119.710;2022-12-15T12:44:01;4;3;
40569;PMS5003;26270;34.428;-119.710;2022-12-15T12:46:38;1;1;
40569;PMS5003;26270;34.428;-119.710;2022-12-15T12:49:11;2;1;
40569;PMS5003;26270;34.428;-119.710;2022-12-15T12:51:48;0;0;
40569;PMS5003;26270;34.428;-119.710;2022-12-15T12:54:38;1;1;
40569;PMS5003;26270;34.428;-119.710;2022-12-15T12:57:42;2;2;
40569;PMS5003;26270;34.428;-119.710;2022-12-15T13:00:13;1;1;
40569;PMS5003;26270;34.428;-119.710;2022-12-15T13:02:46;2;2;
40569;PMS5003;26270;34.428;-119.710;2022-12-15T13:05:22;3;3;
40569;PMS5003;26270;34.428;-119.710;2022-12-15T13:07:53;2;2;
40569;PMS5003;26270;34.428;-119.710;2022-12-15T13:10:32;0;0;
40569;PMS5003;26270;34.428;-119.710;2022-12-15T13:13:14;1;1;
40569;PMS5003;26270;34.428;-119.710;2022-12-15T13:16:04;3;3;
40569;PMS5003;26270;34.428;-119.710;2022-12-15T13:18:53;7;4;
40569;PMS5003;26270;34.428;-119.710;2022-12-15T13:21:46;3;3;
40569;PMS5003;26270;34.428;-119.710;2022-12-15T13:24:24;3;3;
40569;PMS5003;26270;34.428;-119.710;2022-12-15T13:27:09;2;2;
40569;PMS5003;26270;34.428;-119.710;2022-12-15T13:29:54;4;2;
40569;PMS5003;26270;34.428;-119.710;2022-12-15T13:32:27;3;2;
40569;PMS5003;26270;34.428;-119.710;2022-12-15T13:34:59;2;2;
40569;PMS5003;26270;34.428;-119.710;2022-12-15T13:37:50;2;2;
40569;PMS5003;26270;34.428;-119.710;2022-12-15T13:40:24;2;2;
40569;PMS5003;26270;34.428;-119.710;2022-12-15T13:42:56;2;2;
40569;PMS5003;26270;34.428;-119.710;2022-12-15T13:45:29;2;2;
40569;PMS5003;26270;34.428;-119.710;2022-12-15T13:48:12;3;3;
40569;PMS5003;26270;34.428;-119.710;2022-12-15T13:51:03;2;2;
40569;PMS5003;26270;34.428;-119.710;2022-12-15T13:53:45;2;2;
40569;PMS5003;26270;34.428;-119.710;2022-12-15T13:56:22;2;2;
40569;PMS5003;26270;34.428;-119.710;2022-12-15T13:59:02;2;2;
40569;PMS5003;26270;34.428;-119.710;2022-12-15T14:01:37;2;2;
40569;PMS5003;26270;34.428;-119.710;2022-12-15T14:04:15;2;2;
40569;PMS5003;26270;34.428;-119.710;2022-12-15T14:06:45;2;1;
40569;PMS5003;26270;34.428;-119.710;2022-12-15T14:09:16;3;3;
40569;PMS5003;26270;34.428;-119.710;2022-12-15T14:11:47;1;1;
40569;PMS5003;26270;34.428;-119.710;2022-12-15T14:14:18;3;1;
40569;PMS5003;26270;34.428;-119.710;2022-12-15T14:16:51;1;1;
40569;PMS5003;26270;34.428;-119.710;2022-12-15T14:19:22;2;2;
40569;PMS5003;26270;34.428;-119.710;2022-12-15T14:21:51;1;1;
40569;PMS5003;26270;34.428;-119.710;2022-12-15T14:24:22;2;2;
40569;PMS5003;26270;34.428;-119.710;2022-12-15T14:26:53;2;1;
40569;PMS5003;26270;34.428;-119.710;2022-12-15T14:29:22;2;2;
40569;PMS5003;26270;34.428;-119.710;2022-12-15T14:31:52;1;1;
40569;PMS5003;26270;34.428;-119.710;2022-12-15T14:34:23;2;2;
40569;PMS5003;26270;34.428;-119.710;2022-12-15T14:36:57;3;3;
40569;PMS5003;26270;34.428;-119.710;2022-12-15T14:39:30;1;1;
40569;PMS5003;26270;34.428;-119.710;2022-12-15T14:42:03;1;1;
40569;PMS5003;26270;34.428;-119.710;2022-12-15T14:44:34;2;2;
40569;PMS5003;26270;34.428;-119.710;2022-12-15T14:47:04;2;2;
40569;PMS5003;26270;34.428;-119.710;2022-12-15T14:49:36;1;1;
40569;PMS5003;26270;34.428;-119.710;2022-12-15T14:52:14;1;1;
40569;PMS5003;26270;34.428;-119.710;2022-12-15T14:54:52;2;2;
40569;PMS5003;26270;34.428;-119.710;2022-12-15T14:57:22;2;2;
40569;PMS5003;26270;34.428;-119.710;2022-12-15T14:59:53;1;1;
40569;PMS5003;26270;34.428;-119.710;2022-12-15T15:02:22;2;2;
40569;PMS5003;26270;34.428;-119.710;2022-12-15T15:04:54;3;2;
40569;PMS5003;26270;34.428;-119.710;2022-12-15T15:07:24;3;2;
40569;PMS5003;26270;34.428;-119.710;2022-12-15T15:09:53;3;2;
40569;PMS5003;26270;34.428;-119.710;2022-12-15T15:12:22;2;2;
40569;PMS5003;26270;34.428;-119.710;2022-12-15T15:14:52;3;3;
40569;PMS5003;26270;34.428;-119.710;2022-12-15T15:17:27;3;3;
40569;PMS5003;26270;34.428;-119.710;2022-12-15T15:20:02;5;5;
40569;PMS5003;26270;34.428;-119.710;2022-12-15T15:22:34;3;3;
40569;PMS5003;26270;34.428;-119.710;2022-12-15T15:25:38;2;2;
40569;PMS5003;26270;34.428;-119.710;2022-12-15T15:28:12;5;5;
40569;PMS5003;26270;34.428;-119.710;2022-12-15T15:30:47;5;4;
40569;PMS5003;26270;34.428;-119.710;2022-12-15T15:33:16;2;2;
40569;PMS5003;26270;34.428;-119.710;2022-12-15T15:35:48;2;2;
40569;PMS5003;26270;34.428;-119.710;2022-12-15T15:38:19;2;2;
40569;PMS5003;26270;34.428;-119.710;2022-12-15T15:40:51;2;2;
40569;PMS5003;26270;34.428;-119.710;2022-12-15T15:43:20;3;3;
40569;PMS5003;26270;34.428;-119.710;2022-12-15T15:45:48;2;2;
40569;PMS5003;26270;34.428;-119.710;2022-12-15T15:48:22;1;1;
40569;PMS5003;26270;34.428;-119.710;2022-12-15T15:50:54;2;2;
40569;PMS5003;26270;34.428;-119.710;2022-12-15T15:53:23;4;3;
40569;PMS5003;26270;34.428;-119.710;2022-12-15T15:55:52;3;3;
40569;PMS5003;26270;34.428;-119.710;2022-12-15T15:58:21;4;4;
40569;PMS5003;26270;34.428;-119.710;2022-12-15T16:00:50;9;5;
40569;PMS5003;26270;34.428;-119.710;2022-12-15T16:03:18;5;5;
40569;PMS5003;26270;34.428;-119.710;2022-12-15T16:05:46;5;4;
40569;PMS5003;26270;34.428;-119.710;2022-12-15T16:08:15;3;3;
40569;PMS5003;26270;34.428;-119.710;2022-12-15T16:10:47;4;3;
40569;PMS5003;26270;34.428;-119.710;2022-12-15T16:13:16;2;2;
40569;PMS5003;26270;34.428;-119.710;2022-12-15T16:15:46;3;3;
40569;PMS5003;26270;34.428;-119.710;2022-12-15T16:18:15;4;3;
40569;PMS5003;26270;34.428;-119.710;2022-12-15T16:20:45;5;5;
40569;PMS5003;26270;34.428;-119.710;2022-12-15T16:23:16;3;3;
40569;PMS5003;26270;34.428;-119.710;2022-12-15T16:25:47;6;4;
40569;PMS5003;26270;34.428;-119.710;2022-12-15T16:28:18;5;5;